Time;durP1;ratioP1;P1;durP2;ratioP2;P2;SDS_P1;SDS_P2;PMS_P1;PMS_P2;Temp;Humidity;BMP_temperature;BMP_pressure;BME280_temperature;BME280_humidity;BME280_pressure;Samples;Min_cycle;Max_cycle;Signal;HPM_P1;HPM_P2
2022/03/27 00:01:25;;;;;;;55.85;27.05;;;8.30;99.90;;;;;;5093113;28;20547;-62
2022/03/27 00:03:50;;;;;;;56.08;26.67;;;8.30;99.90;;;;;;5088831;28;20035;-61
2022/03/27 00:06:16;;;;;;;64.32;28.30;;;8.20;99.90;;;;;;5090151;28;20032;-61
2022/03/27 00:08:41;;;;;;;60.47;26.85;;;8.20;99.90;;;;;;5092990;28;20028;-61
2022/03/27 00:11:26;;;;;;;55.45;27.90;;;8.20;99.90;;;;;;5092270;28;20106;-62
2022/03/27 00:13:57;;;;;;;56.45;27.98;;;8.10;99.90;;;;;;5085533;28;20101;-61
2022/03/27 00:16:23;;;;;;;51.67;25.98;;;8.10;99.90;;;;;;5086731;28;20048;-61
2022/03/27 00:18:48;;;;;;;54.00;28.85;;;8.10;99.90;;;;;;5084854;28;20513;-61
2022/03/27 00:21:14;;;;;;;56.30;26.73;;;8.10;99.90;;;;;;5090012;28;20020;-62
2022/03/27 00:23:41;;;;;;;56.22;26.23;;;8.10;99.90;;;;;;5086744;28;20020;-61
2022/03/27 00:26:07;;;;;;;62.20;29.55;;;8.00;99.90;;;;;;5089496;28;20048;-59
2022/03/27 00:28:33;;;;;;;59.25;28.17;;;8.00;99.90;;;;;;5092426;28;20513;-60
2022/03/27 00:31:04;;;;;;;55.65;28.17;;;7.90;99.90;;;;;;5090669;28;20028;-61
2022/03/27 00:33:31;;;;;;;60.13;27.60;;;7.80;99.90;;;;;;5088384;28;20024;-59
2022/03/27 00:35:58;;;;;;;58.10;26.15;;;7.80;99.90;;;;;;5083878;28;20449;-59
2022/03/27 00:38:25;;;;;;;57.75;28.45;;;7.80;99.90;;;;;;5092240;28;20089;-60
2022/03/27 00:40:51;;;;;;;56.25;26.55;;;7.80;99.90;;;;;;5090490;28;20046;-61
2022/03/27 00:43:18;;;;;;;55.28;26.63;;;7.90;99.90;;;;;;5092615;28;20139;-59
2022/03/27 00:45:44;;;;;;;53.70;25.10;;;8.00;99.90;;;;;;5088246;28;20039;-61
2022/03/27 00:48:10;;;;;;;52.60;26.50;;;8.10;99.90;;;;;;5086944;28;20036;-59
2022/03/27 00:50:36;;;;;;;53.40;26.48;;;8.00;99.90;;;;;;5087261;28;20020;-61
2022/03/27 00:53:02;;;;;;;57.90;26.90;;;7.90;99.90;;;;;;5087572;28;20066;-61
2022/03/27 00:55:28;;;;;;;57.22;26.25;;;7.80;99.90;;;;;;5091649;28;20054;-61
2022/03/27 00:57:55;;;;;;;53.45;25.60;;;7.70;99.90;;;;;;5091080;28;20040;-61
2022/03/27 01:00:41;;;;;;;57.75;29.23;;;7.70;99.90;;;;;;5077144;28;20035;-61
2022/03/27 01:03:09;;;;;;;60.78;28.33;;;7.60;99.90;;;;;;5090819;28;20028;-60
2022/03/27 01:05:35;;;;;;;54.42;26.88;;;7.60;99.90;;;;;;5085610;28;20130;-61
2022/03/27 01:08:05;;;;;;;55.60;29.27;;;7.60;99.90;;;;;;5088604;28;20118;-61
2022/03/27 01:10:32;;;;;;;57.47;28.15;;;7.50;99.90;;;;;;5087883;28;20028;-61
2022/03/27 01:12:58;;;;;;;68.07;27.42;;;7.50;99.90;;;;;;5086338;28;20402;-61
2022/03/27 01:15:33;;;;;;;57.40;28.50;;;7.50;99.90;;;;;;5084652;28;20111;-60
2022/03/27 01:17:59;;;;;;;53.67;26.60;;;7.40;99.90;;;;;;5089605;28;20539;-61
2022/03/27 01:20:35;;;;;;;53.92;27.70;;;7.40;99.90;;;;;;5069969;28;20131;-59
2022/03/27 01:23:06;;;;;;;57.78;28.48;;;7.40;99.90;;;;;;5089450;28;20036;-61
2022/03/27 01:25:31;;;;;;;61.38;29.13;;;7.30;99.90;;;;;;5089996;28;20402;-61
2022/03/27 01:27:57;;;;;;;58.28;28.30;;;7.30;99.90;;;;;;5090993;28;20035;-61
2022/03/27 01:30:22;;;;;;;73.72;30.02;;;7.30;99.90;;;;;;5085956;28;20035;-61
2022/03/27 01:32:51;;;;;;;63.17;31.27;;;7.20;99.90;;;;;;5086153;28;20064;-60
2022/03/27 01:35:18;;;;;;;60.65;28.65;;;7.30;99.90;;;;;;5081314;28;20027;-61
2022/03/27 01:37:44;;;;;;;61.05;31.15;;;7.30;99.90;;;;;;5085911;28;20035;-61
2022/03/27 01:40:10;;;;;;;66.70;32.88;;;7.30;99.90;;;;;;5086283;28;20445;-62
2022/03/27 01:42:36;;;;;;;56.53;28.77;;;7.20;99.90;;;;;;5082151;28;20021;-60
2022/03/27 01:45:03;;;;;;;62.25;30.27;;;7.20;99.90;;;;;;5088632;28;20612;-60
2022/03/27 01:47:28;;;;;;;57.95;28.85;;;7.10;99.90;;;;;;5088413;28;20043;-61
2022/03/27 01:49:54;;;;;;;59.20;28.10;;;7.10;99.90;;;;;;5085221;28;20074;-61
2022/03/27 01:52:19;;;;;;;61.88;31.15;;;7.20;99.90;;;;;;5089060;28;20052;-61
2022/03/27 01:54:45;;;;;;;58.20;28.73;;;7.20;99.90;;;;;;5085417;28;20024;-60
2022/03/27 01:57:11;;;;;;;59.10;28.92;;;7.30;99.90;;;;;;5085180;28;20036;-61
2022/03/27 01:59:37;;;;;;;63.45;28.27;;;7.40;99.90;;;;;;5079203;28;20088;-61
2022/03/27 02:02:03;;;;;;;55.90;28.45;;;7.40;99.90;;;;;;5084891;28;20294;-62
2022/03/27 02:04:28;;;;;;;61.97;29.05;;;7.40;99.90;;;;;;5068149;28;20028;-61
2022/03/27 02:06:54;;;;;;;59.28;30.10;;;7.30;99.90;;;;;;5085883;28;20066;-60
2022/03/27 02:09:19;;;;;;;55.95;26.67;;;7.20;99.90;;;;;;5083208;28;20028;-60
2022/03/27 02:11:45;;;;;;;67.60;29.50;;;7.10;99.90;;;;;;5084335;28;20025;-61
2022/03/27 02:14:11;;;;;;;54.33;27.23;;;7.10;99.90;;;;;;5087406;28;20032;-61
2022/03/27 02:16:37;;;;;;;61.90;30.67;;;7.10;99.90;;;;;;5088997;28;20111;-58
2022/03/27 02:19:10;;;;;;;62.15;30.45;;;7.10;99.90;;;;;;5086290;28;20304;-61
2022/03/27 02:21:41;;;;;;;66.43;31.65;;;7.10;99.90;;;;;;5087569;28;20029;-61
2022/03/27 02:24:08;;;;;;;62.65;29.77;;;7.10;99.90;;;;;;5077349;28;20031;-61
2022/03/27 02:26:33;;;;;;;60.92;28.25;;;7.10;99.90;;;;;;5088518;28;20031;-61
2022/03/27 02:28:59;;;;;;;64.28;30.58;;;7.20;99.90;;;;;;5084735;28;20031;-61
2022/03/27 02:31:25;;;;;;;66.75;28.77;;;7.20;99.90;;;;;;5086704;28;20438;-61
2022/03/27 02:33:51;;;;;;;65.38;29.42;;;7.20;99.90;;;;;;5081193;28;20024;-61
2022/03/27 02:36:16;;;;;;;61.25;29.85;;;7.10;99.90;;;;;;5084285;28;20032;-60
2022/03/27 02:38:42;;;;;;;62.45;27.50;;;7.10;99.90;;;;;;5086559;28;20039;-61
2022/03/27 02:41:08;;;;;;;55.90;27.75;;;7.10;99.90;;;;;;5084633;28;20024;-61
2022/03/27 02:43:38;;;;;;;49.97;26.55;;;7.20;99.90;;;;;;5086334;28;20024;-60
2022/03/27 02:46:05;;;;;;;59.90;27.33;;;7.20;99.90;;;;;;5087995;28;20035;-61
2022/03/27 02:48:30;;;;;;;62.17;28.17;;;7.20;99.90;;;;;;5083003;28;20032;-61
2022/03/27 02:50:56;;;;;;;58.28;27.80;;;7.10;99.90;;;;;;5084429;28;20417;-61
2022/03/27 02:53:21;;;;;;;53.97;27.98;;;6.90;99.90;;;;;;5086362;28;20024;-58
2022/03/27 02:55:47;;;;;;;55.55;28.15;;;7.00;99.90;;;;;;5089431;28;20028;-59
2022/03/27 02:58:13;;;;;;;52.75;27.30;;;7.00;99.90;;;;;;5078480;28;20368;-61
2022/03/27 03:00:41;;;;;;;60.65;29.42;;;7.10;99.90;;;;;;5085918;28;20107;-61
2022/03/27 03:03:10;;;;;;;53.50;27.67;;;7.10;99.90;;;;;;5089319;28;20032;-61
2022/03/27 03:05:40;;;;;;;59.83;28.58;;;7.00;99.90;;;;;;5084229;28;20062;-61
2022/03/27 03:08:10;;;;;;;59.45;29.10;;;6.90;99.90;;;;;;5088485;28;20097;-60
2022/03/27 03:10:39;;;;;;;62.30;30.95;;;6.80;99.90;;;;;;5078727;28;20463;-61
2022/03/27 03:13:08;;;;;;;66.72;32.17;;;6.80;99.90;;;;;;5086091;28;20031;-60
2022/03/27 03:15:38;;;;;;;61.33;29.70;;;6.80;99.90;;;;;;5087298;28;20436;-61
2022/03/27 03:18:05;;;;;;;60.70;29.23;;;6.60;99.90;;;;;;5075704;28;20032;-61
2022/03/27 03:20:31;;;;;;;60.95;28.70;;;6.60;99.90;;;;;;5083413;28;20039;-60
2022/03/27 03:22:57;;;;;;;61.28;29.40;;;6.50;99.90;;;;;;5082920;28;20375;-61
2022/03/27 03:25:23;;;;;;;60.65;29.70;;;6.40;99.90;;;;;;5084873;28;20036;-61
2022/03/27 03:27:49;;;;;;;63.63;31.20;;;6.40;99.90;;;;;;5086873;28;20039;-61
2022/03/27 03:30:16;;;;;;;60.50;30.55;;;6.40;99.90;;;;;;5080857;28;20389;-62
2022/03/27 03:32:42;;;;;;;68.05;29.75;;;6.40;99.90;;;;;;5085426;28;20020;-60
2022/03/27 03:35:08;;;;;;;67.38;29.13;;;6.30;99.90;;;;;;5085798;28;20025;-60
2022/03/27 03:37:34;;;;;;;70.03;30.02;;;6.20;99.90;;;;;;5090242;28;20032;-61
2022/03/27 03:39:59;;;;;;;61.90;29.15;;;6.20;99.90;;;;;;5085041;28;20162;-61
2022/03/27 03:42:25;;;;;;;64.38;29.92;;;6.00;99.90;;;;;;5086596;28;20089;-61
2022/03/27 03:44:51;;;;;;;67.13;30.58;;;5.90;99.90;;;;;;5084823;28;20028;-61
2022/03/27 03:47:16;;;;;;;58.65;29.92;;;5.90;99.90;;;;;;5082626;28;20024;-62
2022/03/27 03:49:42;;;;;;;68.13;30.10;;;6.00;99.90;;;;;;5089036;28;20027;-62
2022/03/27 03:52:07;;;;;;;64.05;29.58;;;6.10;99.90;;;;;;5088780;28;20034;-61
2022/03/27 03:54:34;;;;;;;63.80;29.33;;;6.20;99.90;;;;;;5080552;28;20090;-60
2022/03/27 03:57:05;;;;;;;65.32;29.83;;;6.30;99.90;;;;;;5083117;28;20091;-61
2022/03/27 03:59:33;;;;;;;60.50;30.45;;;6.30;99.90;;;;;;5092265;28;20047;-61
2022/03/27 04:01:59;;;;;;;60.20;29.85;;;6.30;99.90;;;;;;5090113;28;20031;-62
2022/03/27 04:04:26;;;;;;;61.30;29.15;;;6.20;99.90;;;;;;5093149;28;20024;-62
2022/03/27 04:06:51;;;;;;;54.03;26.17;;;6.00;99.90;;;;;;5089136;28;20023;-60
2022/03/27 04:09:17;;;;;;;56.63;29.67;;;6.00;99.90;;;;;;5093345;28;20081;-58
2022/03/27 04:11:43;;;;;;;60.65;28.05;;;5.90;99.90;;;;;;5091356;28;20038;-61
2022/03/27 04:14:09;;;;;;;59.30;28.42;;;5.80;99.90;;;;;;5084195;28;20103;-60
2022/03/27 04:16:34;;;;;;;56.00;28.23;;;5.70;99.90;;;;;;5090447;28;20033;-59
2022/03/27 04:19:00;;;;;;;64.82;29.00;;;5.70;99.90;;;;;;5085470;28;20530;-61
2022/03/27 04:21:26;;;;;;;60.25;30.73;;;5.70;99.90;;;;;;5089344;28;20469;-60
2022/03/27 04:23:52;;;;;;;64.75;30.58;;;5.70;99.90;;;;;;5089704;28;20024;-61
2022/03/27 04:26:17;;;;;;;55.88;28.88;;;5.70;99.90;;;;;;5088677;28;20020;-60
2022/03/27 04:28:43;;;;;;;75.20;30.65;;;5.90;99.90;;;;;;5087586;28;20050;-61
2022/03/27 04:31:09;;;;;;;56.72;28.77;;;5.90;99.90;;;;;;5087951;28;20519;-61
2022/03/27 04:33:34;;;;;;;64.05;30.90;;;6.00;99.90;;;;;;5091883;28;20370;-62
2022/03/27 04:36:02;;;;;;;61.97;29.33;;;6.10;99.90;;;;;;5092004;28;20097;-61
2022/03/27 04:38:27;;;;;;;60.88;28.17;;;6.10;99.90;;;;;;5086229;28;20027;-62
2022/03/27 04:40:53;;;;;;;56.10;29.33;;;6.10;99.90;;;;;;5091902;28;20024;-62
2022/03/27 04:43:18;;;;;;;61.17;29.08;;;6.10;99.90;;;;;;5087821;28;20108;-62
2022/03/27 04:45:44;;;;;;;62.85;28.35;;;6.00;99.90;;;;;;5088971;28;20118;-62
2022/03/27 04:48:10;;;;;;;57.22;28.55;;;5.90;99.90;;;;;;5086125;28;20037;-62
2022/03/27 04:50:35;;;;;;;70.75;28.73;;;5.80;99.90;;;;;;5092955;28;20039;-62
2022/03/27 04:53:01;;;;;;;66.13;28.30;;;5.70;99.90;;;;;;5088391;28;20036;-62
2022/03/27 04:55:26;;;;;;;66.38;29.08;;;5.60;99.90;;;;;;5088087;28;20044;-60
2022/03/27 04:57:52;;;;;;;67.45;28.85;;;5.60;99.90;;;;;;5089762;28;20099;-60
2022/03/27 05:00:17;;;;;;;62.13;28.35;;;5.60;99.90;;;;;;5092730;28;20023;-62
2022/03/27 05:02:44;;;;;;;66.03;29.50;;;5.60;99.90;;;;;;5091251;28;20071;-61
2022/03/27 05:05:11;;;;;;;65.10;29.50;;;5.50;99.90;;;;;;5091788;28;20035;-62
2022/03/27 05:07:38;;;;;;;61.35;28.17;;;5.60;99.90;;;;;;5091799;28;20030;-61
2022/03/27 05:10:05;;;;;;;67.00;30.65;;;5.60;99.90;;;;;;5089074;28;20468;-62
2022/03/27 05:12:30;;;;;;;67.47;29.30;;;5.70;99.90;;;;;;5088839;28;20016;-62
2022/03/27 05:14:56;;;;;;;68.55;30.75;;;5.70;99.90;;;;;;5090065;28;20027;-61
2022/03/27 05:17:22;;;;;;;61.83;28.38;;;5.70;99.90;;;;;;5090276;28;20028;-59
2022/03/27 05:19:47;;;;;;;62.20;29.85;;;5.60;99.90;;;;;;5086921;28;20032;-60
2022/03/27 05:22:14;;;;;;;64.72;29.38;;;5.50;99.90;;;;;;5091888;28;20421;-62
2022/03/27 05:24:40;;;;;;;63.53;30.20;;;5.50;99.90;;;;;;5087638;28;20032;-61
2022/03/27 05:27:05;;;;;;;63.35;29.70;;;5.50;99.90;;;;;;5090951;28;20062;-62
2022/03/27 05:29:31;;;;;;;67.18;30.65;;;5.50;99.90;;;;;;5084602;28;20580;-61
2022/03/27 05:31:58;;;;;;;61.88;29.80;;;5.50;99.90;;;;;;5091849;28;20028;-62
2022/03/27 05:34:24;;;;;;;66.38;29.45;;;5.50;99.90;;;;;;5090926;28;20027;-62
2022/03/27 05:36:49;;;;;;;63.10;29.98;;;5.50;99.90;;;;;;5091399;28;20024;-61
2022/03/27 05:39:15;;;;;;;67.25;30.63;;;5.50;99.90;;;;;;5085039;28;20029;-61
2022/03/27 05:41:40;;;;;;;70.45;32.05;;;5.60;99.90;;;;;;5083291;28;20058;-62
2022/03/27 05:44:06;;;;;;;68.70;29.80;;;5.60;99.90;;;;;;5082534;28;20109;-62
2022/03/27 05:46:32;;;;;;;70.70;30.13;;;5.50;99.90;;;;;;5080608;28;20024;-62
2022/03/27 05:48:57;;;;;;;65.30;29.60;;;5.50;99.90;;;;;;5085891;28;20044;-59
2022/03/27 05:51:23;;;;;;;65.53;30.63;;;5.40;99.90;;;;;;5091058;28;20032;-59
2022/03/27 05:53:49;;;;;;;73.93;30.05;;;5.40;99.90;;;;;;5090598;28;20032;-60
2022/03/27 05:56:14;;;;;;;60.70;29.42;;;5.40;99.90;;;;;;5086414;28;20034;-61
2022/03/27 05:58:40;;;;;;;59.60;30.13;;;5.40;99.90;;;;;;5090838;28;20543;-60
2022/03/27 06:01:06;;;;;;;71.88;34.10;;;5.40;99.90;;;;;;5090609;28;20035;-62
2022/03/27 06:03:32;;;;;;;77.03;32.58;;;5.40;99.90;;;;;;5091108;28;20036;-62
2022/03/27 06:05:57;;;;;;;71.32;32.38;;;5.50;99.90;;;;;;5091307;28;20027;-62
2022/03/27 06:08:23;;;;;;;71.95;31.48;;;5.60;99.90;;;;;;5091041;28;20035;-61
2022/03/27 06:10:49;;;;;;;65.72;30.83;;;5.70;99.90;;;;;;5088597;28;20044;-61
2022/03/27 06:13:16;;;;;;;61.20;29.38;;;5.60;99.90;;;;;;5091012;28;20099;-61
2022/03/27 06:15:42;;;;;;;61.42;29.77;;;5.80;99.90;;;;;;5087400;28;20029;-61
2022/03/27 06:18:10;;;;;;;67.35;30.80;;;5.90;99.90;;;;;;5089484;28;20020;-61
2022/03/27 06:20:36;;;;;;;70.75;33.55;;;6.10;99.90;;;;;;5089929;28;20024;-60
2022/03/27 06:23:03;;;;;;;72.30;33.67;;;6.30;99.90;;;;;;5091102;28;20039;-61
2022/03/27 06:25:29;;;;;;;64.95;31.38;;;6.50;99.90;;;;;;5090160;28;20071;-59
2022/03/27 06:27:56;;;;;;;60.85;30.40;;;6.60;99.90;;;;;;5088120;28;20050;-60
2022/03/27 06:30:23;;;;;;;67.35;31.02;;;6.70;99.90;;;;;;5090827;28;20420;-60
2022/03/27 06:32:51;;;;;;;67.72;30.75;;;6.90;99.90;;;;;;5091074;28;20402;-60
2022/03/27 06:35:18;;;;;;;68.78;32.30;;;7.00;99.90;;;;;;5085251;28;20020;-61
2022/03/27 06:37:44;;;;;;;56.08;30.55;;;7.10;99.90;;;;;;5091163;28;20028;-61
2022/03/27 06:40:13;;;;;;;60.63;30.85;;;7.20;99.90;;;;;;5090477;28;20024;-61
2022/03/27 06:42:39;;;;;;;56.63;31.73;;;7.40;99.90;;;;;;5089113;28;20028;-61
2022/03/27 06:45:05;;;;;;;64.40;32.15;;;7.40;99.90;;;;;;5090182;28;20039;-61
2022/03/27 06:47:32;;;;;;;57.00;30.45;;;7.50;99.90;;;;;;5089860;28;20030;-62
2022/03/27 06:49:58;;;;;;;54.95;27.77;;;7.60;99.90;;;;;;5090282;28;20036;-61
2022/03/27 06:52:26;;;;;;;58.50;26.95;;;7.70;99.90;;;;;;5088389;28;20462;-61
2022/03/27 06:54:52;;;;;;;55.72;28.50;;;7.80;99.90;;;;;;5090779;28;20035;-61
2022/03/27 06:57:17;;;;;;;53.13;29.23;;;7.90;99.90;;;;;;5088858;28;20032;-62
2022/03/27 07:05:15;;;;;;;;;;;8.20;99.90;;;;;;5085450;28;20603;-62
2022/03/27 07:07:42;;;;;;;53.35;26.25;;;8.30;99.90;;;;;;5089761;28;19958;-61
2022/03/27 07:10:08;;;;;;;46.20;24.55;;;8.40;99.90;;;;;;5090373;28;20110;-61
2022/03/27 07:12:34;;;;;;;49.90;25.98;;;8.40;99.90;;;;;;5088940;28;20477;-61
2022/03/27 07:15:00;;;;;;;43.63;24.98;;;8.50;99.90;;;;;;5087525;28;20032;-61
2022/03/27 07:17:26;;;;;;;49.88;26.52;;;8.60;99.90;;;;;;5088355;28;20016;-61
2022/03/27 07:19:52;;;;;;;44.67;24.67;;;8.70;99.90;;;;;;5089080;28;20027;-61
2022/03/27 07:22:18;;;;;;;46.70;25.15;;;8.90;99.90;;;;;;5086798;28;20027;-62
2022/03/27 07:24:45;;;;;;;50.70;25.58;;;9.00;99.90;;;;;;5089881;28;20034;-62
2022/03/27 07:27:10;;;;;;;42.22;24.90;;;9.00;99.90;;;;;;5089207;28;20048;-61
2022/03/27 07:29:37;;;;;;;49.78;27.88;;;9.10;99.90;;;;;;5093926;28;20096;-62
2022/03/27 07:32:04;;;;;;;49.60;27.15;;;9.20;99.90;;;;;;5087977;28;20439;-61
2022/03/27 07:34:29;;;;;;;54.97;27.80;;;9.20;99.90;;;;;;5074303;28;20031;-62
2022/03/27 07:36:55;;;;;;;58.78;27.92;;;9.30;99.90;;;;;;5091249;28;20017;-61
2022/03/27 07:39:21;;;;;;;41.70;24.45;;;9.40;99.90;;;;;;5093977;28;20028;-61
2022/03/27 07:41:47;;;;;;;49.47;27.73;;;9.60;99.90;;;;;;5093474;28;20045;-60
2022/03/27 07:44:13;;;;;;;45.15;25.70;;;9.70;99.90;;;;;;5088510;28;20028;-61
2022/03/27 07:46:39;;;;;;;51.90;27.42;;;9.70;99.90;;;;;;5094059;28;20036;-61
2022/03/27 07:49:06;;;;;;;51.70;27.45;;;9.80;99.90;;;;;;5093913;28;20024;-61
2022/03/27 07:51:33;;;;;;;49.05;26.83;;;9.80;99.90;;;;;;5091247;28;20031;-61
2022/03/27 07:53:58;;;;;;;50.15;26.83;;;9.90;99.90;;;;;;5093538;28;20051;-62
2022/03/27 07:56:25;;;;;;;51.45;27.92;;;10.00;99.90;;;;;;5092953;28;20028;-58
2022/03/27 07:58:50;;;;;;;50.72;28.48;;;10.00;99.90;;;;;;5092059;28;20028;-61
2022/03/27 08:01:16;;;;;;;48.33;25.30;;;10.10;99.90;;;;;;5093699;28;20165;-62
2022/03/27 08:03:42;;;;;;;46.17;27.60;;;10.20;99.90;;;;;;5093929;28;20147;-62
2022/03/27 08:06:08;;;;;;;46.72;27.40;;;10.30;99.90;;;;;;5092443;28;20444;-61
2022/03/27 08:08:34;;;;;;;50.20;27.85;;;10.30;99.90;;;;;;5092990;28;20035;-62
2022/03/27 08:10:59;;;;;;;53.10;29.25;;;10.30;99.90;;;;;;5093293;28;20470;-61
2022/03/27 08:13:25;;;;;;;67.43;33.33;;;10.30;99.90;;;;;;5087733;28;20508;-61
2022/03/27 08:15:51;;;;;;;51.97;30.48;;;10.40;99.90;;;;;;5092176;28;20020;-61
2022/03/27 08:18:17;;;;;;;53.85;28.60;;;10.50;99.90;;;;;;5089755;28;20028;-61
2022/03/27 08:20:43;;;;;;;48.67;27.27;;;10.60;99.90;;;;;;5085905;28;20043;-56
2022/03/27 08:23:08;;;;;;;54.63;27.13;;;10.80;99.90;;;;;;5090969;28;20028;-59
2022/03/27 08:28:20;;;;;;;53.42;28.58;;;10.90;99.90;;;;;;5092794;28;20436;-62
2022/03/27 08:30:46;;;;;;;50.92;28.17;;;11.00;99.90;;;;;;5092979;28;20437;-60
2022/03/27 08:33:13;;;;;;;48.03;27.92;;;11.10;99.90;;;;;;5088644;28;20103;-62
2022/03/27 08:35:41;;;;;;;52.03;27.70;;;11.20;99.90;;;;;;5092293;28;20035;-60
2022/03/27 08:38:08;;;;;;;50.38;28.05;;;11.20;99.90;;;;;;5093067;28;20024;-62
2022/03/27 08:40:35;;;;;;;50.25;28.00;;;11.30;99.90;;;;;;5090845;28;20024;-61
2022/03/27 08:43:01;;;;;;;40.75;24.67;;;11.30;99.90;;;;;;5092288;28;20545;-61
2022/03/27 08:45:27;;;;;;;47.95;25.70;;;11.40;99.90;;;;;;5091988;28;20032;-61
2022/03/27 08:47:54;;;;;;;49.67;25.80;;;11.50;99.90;;;;;;5087412;28;20036;-61
2022/03/27 08:50:34;;;;;;;48.20;26.02;;;11.50;99.90;;;;;;5092527;28;20028;-61
2022/03/27 08:53:05;;;;;;;48.85;26.50;;;11.60;99.90;;;;;;5092964;28;20028;-60
2022/03/27 08:56:00;;;;;;;38.10;24.40;;;11.70;99.90;;;;;;5091885;28;20023;-59
2022/03/27 08:58:37;;;;;;;46.38;25.13;;;11.80;99.90;;;;;;5082840;28;20080;-60
2022/03/27 09:01:04;;;;;;;44.25;25.90;;;11.80;99.90;;;;;;5087764;28;20054;-60
2022/03/27 09:03:30;;;;;;;44.35;22.92;;;12.00;99.90;;;;;;5073508;28;20031;-61
2022/03/27 09:05:56;;;;;;;47.30;25.00;;;12.10;99.90;;;;;;5090934;28;20115;-62
2022/03/27 09:08:22;;;;;;;44.25;24.33;;;12.20;99.90;;;;;;5084432;28;20059;-61
2022/03/27 09:10:48;;;;;;;42.80;23.92;;;12.30;99.90;;;;;;5091355;28;20092;-60
2022/03/27 09:13:16;;;;;;;38.17;23.13;;;12.30;99.90;;;;;;5089803;28;20380;-60
2022/03/27 09:15:45;;;;;;;39.45;24.92;;;12.50;99.90;;;;;;5088291;28;20028;-61
2022/03/27 09:18:14;;;;;;;36.80;22.42;;;12.50;99.90;;;;;;5086428;28;20486;-62
2022/03/27 09:20:46;;;;;;;37.25;22.65;;;12.50;99.90;;;;;;5088415;28;20099;-61
2022/03/27 09:23:21;;;;;;;41.75;23.33;;;12.70;99.90;;;;;;5083105;28;20024;-62
2022/03/27 09:25:48;;;;;;;42.83;23.55;;;12.80;99.90;;;;;;5090697;28;20031;-61
2022/03/27 09:28:30;;;;;;;41.03;23.08;;;12.90;99.90;;;;;;5087476;28;20035;-61
2022/03/27 09:30:59;;;;;;;47.22;23.95;;;13.00;99.90;;;;;;5088146;28;20564;-61
2022/03/27 09:33:31;;;;;;;43.95;25.88;;;13.10;99.90;;;;;;5090431;28;20081;-61
2022/03/27 09:36:04;;;;;;;38.03;23.17;;;13.10;99.90;;;;;;5089836;28;20085;-60
2022/03/27 09:38:30;;;;;;;39.53;23.45;;;13.10;99.90;;;;;;5085121;28;20404;-61
2022/03/27 09:40:55;;;;;;;46.72;26.05;;;13.20;99.90;;;;;;5089441;28;20040;-60
2022/03/27 09:43:22;;;;;;;49.05;25.92;;;13.40;99.90;;;;;;5086664;28;20031;-61
2022/03/27 09:46:04;;;;;;;52.92;28.17;;;13.40;99.90;;;;;;5089512;28;20033;-61
2022/03/27 09:48:31;;;;;;;43.35;26.17;;;13.60;99.90;;;;;;5089491;28;20027;-61
2022/03/27 09:51:00;;;;;;;49.45;28.27;;;13.90;99.90;;;;;;5089822;28;20035;-59
2022/03/27 09:53:30;;;;;;;48.25;28.77;;;14.00;99.90;;;;;;5089483;28;20103;-60
2022/03/27 09:55:59;;;;;;;47.90;28.90;;;14.10;99.90;;;;;;5087689;28;20028;-61
2022/03/27 09:58:42;;;;;;;50.70;28.33;;;14.00;99.90;;;;;;5090152;28;20027;-61
2022/03/27 10:01:16;;;;;;;48.22;26.65;;;14.10;99.90;;;;;;5065944;28;20564;-61
2022/03/27 10:04:08;;;;;;;47.00;26.77;;;14.30;99.90;;;;;;5108487;22;20668;-58
2022/03/27 10:06:39;;;;;;;47.50;27.50;;;14.60;99.90;;;;;;5104732;28;20011;-58
2022/03/27 10:09:07;;;;;;;44.63;25.13;;;14.80;99.90;;;;;;5108201;28;20065;-56
2022/03/27 10:11:34;;;;;;;41.90;24.92;;;15.00;99.90;;;;;;5106245;28;20024;-58
2022/03/27 10:14:00;;;;;;;42.63;25.67;;;15.00;99.90;;;;;;5088554;28;20008;-58
2022/03/27 10:16:29;;;;;;;41.30;24.20;;;15.00;99.90;;;;;;5089717;28;20058;-59
2022/03/27 10:19:02;;;;;;;43.65;24.30;;;15.10;99.90;;;;;;5080697;28;20020;-60
2022/03/27 10:21:29;;;;;;;49.40;25.27;;;15.20;99.90;;;;;;5087563;28;20066;-57
2022/03/27 10:24:16;;;;;;;35.65;21.92;;;15.40;99.90;;;;;;5086994;28;20024;-57
2022/03/27 10:26:43;;;;;;;35.92;23.42;;;15.70;99.90;;;;;;5087323;28;20032;-56
2022/03/27 10:29:11;;;;;;;39.60;22.48;;;15.80;99.90;;;;;;5086735;28;20027;-59
2022/03/27 10:31:38;;;;;;;37.40;22.40;;;16.00;99.90;;;;;;5085948;28;20020;-60
2022/03/27 10:34:06;;;;;;;36.13;21.40;;;16.30;99.90;;;;;;5076251;28;20100;-57
2022/03/27 10:36:36;;;;;;;34.63;21.25;;;16.30;99.90;;;;;;5076347;28;20092;-57
2022/03/27 10:39:20;;;;;;;31.00;20.15;;;16.10;99.90;;;;;;5071024;28;20074;-57
2022/03/27 10:42:23;;;;;;;29.25;20.23;;;16.50;99.90;;;;;;5076078;28;20025;-57
2022/03/27 10:44:53;;;;;;;35.17;21.05;;;16.70;99.90;;;;;;5070605;28;20048;-60
2022/03/27 10:47:21;;;;;;;31.85;19.38;;;16.70;99.90;;;;;;5076325;28;20013;-60
2022/03/27 10:50:02;;;;;;;39.33;21.58;;;17.00;99.90;;;;;;5084525;28;20455;-56
2022/03/27 10:52:30;;;;;;;31.60;19.75;;;17.10;99.90;;;;;;5075649;28;20113;-60
2022/03/27 10:55:00;;;;;;;32.22;20.90;;;17.00;99.90;;;;;;5070173;28;20025;-59
2022/03/27 10:57:31;;;;;;;33.17;21.35;;;16.60;99.90;;;;;;5073657;28;20016;-58
2022/03/27 10:59:57;;;;;;;34.13;22.00;;;16.60;99.90;;;;;;5083691;28;20375;-58
2022/03/27 11:02:44;;;;;;;32.45;19.85;;;16.50;99.90;;;;;;5077932;28;20039;-59
2022/03/27 11:05:28;;;;;;;32.50;20.10;;;16.80;99.90;;;;;;5067990;28;20040;-55
2022/03/27 11:08:17;;;;;;;29.38;19.88;;;16.90;99.90;;;;;;5074740;28;20178;-59
2022/03/27 11:10:52;;;;;;;30.20;19.85;;;17.30;99.90;;;;;;5088215;28;20028;-59
2022/03/27 11:13:26;;;;;;;33.47;20.80;;;17.50;99.90;;;;;;5082859;28;20055;-59
2022/03/27 11:16:14;;;;;;;30.15;19.90;;;17.40;99.90;;;;;;5080026;28;20024;-59
2022/03/27 11:18:48;;;;;;;30.98;18.83;;;17.30;99.90;;;;;;5081243;28;20033;-59
2022/03/27 11:21:34;;;;;;;33.47;19.15;;;17.40;99.90;;;;;;5086407;28;20043;-59
2022/03/27 11:24:02;;;;;;;32.42;19.33;;;17.70;99.90;;;;;;5080427;28;20158;-59
2022/03/27 11:26:29;;;;;;;31.58;19.75;;;18.00;99.90;;;;;;5077745;28;20474;-57
2022/03/27 11:29:05;;;;;;;30.85;19.73;;;18.40;99.90;;;;;;5081130;28;20036;-57
2022/03/27 11:31:35;;;;;;;29.08;18.60;;;18.60;99.90;;;;;;5074279;28;20031;-58
2022/03/27 11:34:14;;;;;;;31.25;19.65;;;18.50;99.90;;;;;;5077841;28;20107;-60
2022/03/27 11:36:45;;;;;;;26.77;17.73;;;18.50;99.90;;;;;;5079595;28;20028;-58
2022/03/27 11:39:29;;;;;;;27.67;18.27;;;18.60;99.90;;;;;;5098483;28;20100;-59
2022/03/27 11:42:15;;;;;;;33.28;21.08;;;18.70;99.90;;;;;;5086854;28;20028;-58
2022/03/27 11:47:35;;;;;;;32.85;20.98;;;17.70;99.90;;;;;;5084479;28;20139;-55
2022/03/27 11:50:01;;;;;;;31.85;20.48;;;17.70;99.90;;;;;;5084540;28;20036;-57
2022/03/27 11:52:27;;;;;;;29.38;19.95;;;17.90;99.90;;;;;;5085905;28;20677;-58
2022/03/27 11:55:06;;;;;;;32.53;20.88;;;17.80;99.90;;;;;;5088106;28;20088;-59
2022/03/27 11:57:55;;;;;;;28.80;18.80;;;18.10;99.90;;;;;;5080307;28;21010;-60
2022/03/27 12:00:34;;;;;;;30.77;18.77;;;18.20;99.90;;;;;;5083029;28;20052;-59
2022/03/27 12:03:01;;;;;;;24.90;16.13;;;17.90;99.90;;;;;;5091056;28;20031;-58
2022/03/27 12:05:37;;;;;;;26.70;15.93;;;18.00;99.90;;;;;;5081398;28;20452;-59
2022/03/27 12:08:04;;;;;;;24.23;15.40;;;17.80;99.90;;;;;;5089535;28;20047;-58
2022/03/27 12:10:42;;;;;;;25.13;15.93;;;17.70;99.90;;;;;;5082399;28;20039;-60
2022/03/27 12:13:08;;;;;;;24.88;17.38;;;17.60;99.90;;;;;;5083690;28;20393;-59
2022/03/27 12:15:49;;;;;;;26.73;16.67;;;17.70;99.90;;;;;;5085238;28;20028;-59
2022/03/27 12:18:25;;;;;;;31.65;18.13;;;18.20;99.90;;;;;;5084652;28;20024;-58
2022/03/27 12:20:51;;;;;;;26.15;17.10;;;18.90;99.90;;;;;;5078495;28;20089;-57
2022/03/27 12:23:25;;;;;;;32.25;20.05;;;19.20;99.90;;;;;;5084154;28;20035;-58
2022/03/27 12:26:03;;;;;;;29.58;17.40;;;19.00;99.90;;;;;;5086468;28;20020;-57
2022/03/27 12:31:24;;;;;;;28.75;18.60;;;18.60;99.90;;;;;;5077363;28;20104;-56
2022/03/27 12:33:52;;;;;;;31.05;19.33;;;18.60;99.90;;;;;;5083563;28;20505;-56
2022/03/27 12:36:18;;;;;;;27.58;17.52;;;18.80;99.90;;;;;;5082182;28;20024;-58
2022/03/27 12:38:44;;;;;;;27.08;17.35;;;18.80;99.90;;;;;;5082633;28;20420;-58
2022/03/27 12:41:11;;;;;;;27.30;16.75;;;18.70;99.90;;;;;;5086261;28;20032;-54
2022/03/27 12:43:55;;;;;;;32.42;19.58;;;18.70;99.90;;;;;;5082863;28;20016;-55
2022/03/27 12:46:23;;;;;;;28.02;18.08;;;18.90;99.90;;;;;;5082156;28;20020;-58
2022/03/27 12:49:08;;;;;;;25.92;17.38;;;19.10;99.90;;;;;;5081236;28;20024;-58
2022/03/27 12:51:34;;;;;;;26.75;15.95;;;19.00;99.90;;;;;;5087133;28;20359;-58
2022/03/27 12:54:01;;;;;;;30.23;17.42;;;18.70;99.90;;;;;;5080509;28;20039;-58